<?xml version="1.0" encoding="UTF-8" standalone="no" ?>
<gpx xmlns="http://www.topografix.com/GPX/1/1" xmlns:xsi="http://www.w3.org/2001/XMLSchema-instance" xsi:schemaLocation="http://www.topografix.com/GPX/1/1 http://www.topografix.com/GPX/1/1/gpx.xsd" version="1.1" creator="VisuGPX - https://www.visugpx.com">
  <metadata>
    <name>Argentina</name>
    <desc><![CDATA[Downloaded from eMap Software Version 2.75]]></desc>
  </metadata>
  <trk>
    <name><![CDATA[Argentina_127]]></name>
    <extensions>
      <line xmlns="http://www.topografix.com/GPX/gpx_style/0/2">
        <color>ff0000</color>
        <opacity>0.78</opacity>
        <width>0.6000</width>
      </line>
    </extensions>
    <trkseg>
      <trkpt lat="43.60605" lon="6.94649">
        <ele>128.473389</ele>
        <time>2009-08-22T10:41:35Z</time>
      </trkpt>
      <trkpt lat="43.6059" lon="6.94626">
        <ele>126.550659</ele>
        <time>2009-08-22T10:41:49Z</time>
      </trkpt>
      <trkpt lat="43.60583" lon="6.94591">
        <ele>123.666748</ele>
        <time>2009-08-22T10:42:17Z</time>
      </trkpt>
      <trkpt lat="43.6057" lon="6.94551">
        <ele>123.666748</ele>
        <time>2009-08-22T10:42:50Z</time>
      </trkpt>
      <trkpt lat="43.60566" lon="6.9454">
        <ele>123.666748</ele>
        <time>2009-08-22T10:43:00Z</time>
      </trkpt>
      <trkpt lat="43.6054" lon="6.94533">
        <ele>121.26355</ele>
        <time>2009-08-22T10:43:40Z</time>
      </trkpt>
      <trkpt lat="43.60523" lon="6.94557">
        <ele>118.379395</ele>
        <time>2009-08-22T10:44:31Z</time>
      </trkpt>
      <trkpt lat="43.60514" lon="6.94566">
        <ele>118.860107</ele>
        <time>2009-08-22T10:45:06Z</time>
      </trkpt>
      <trkpt lat="43.6051" lon="6.94568">
        <ele>118.860107</ele>
        <time>2009-08-22T10:45:08Z</time>
      </trkpt>
      <trkpt lat="43.60502" lon="6.94581">
        <ele>118.860107</ele>
        <time>2009-08-22T10:45:16Z</time>
      </trkpt>
      <trkpt lat="43.60461" lon="6.94619">
        <ele>120.302124</ele>
        <time>2009-08-22T10:45:54Z</time>
      </trkpt>
      <trkpt lat="43.60444" lon="6.94662">
        <ele>119.34082</ele>
        <time>2009-08-22T10:46:39Z</time>
      </trkpt>
      <trkpt lat="43.60441" lon="6.94735">
        <ele>119.34082</ele>
        <time>2009-08-22T10:47:39Z</time>
      </trkpt>
      <trkpt lat="43.60439" lon="6.94744">
        <ele>119.34082</ele>
        <time>2009-08-22T10:47:43Z</time>
      </trkpt>
      <trkpt lat="43.60439" lon="6.94778">
        <ele>115.976196</ele>
        <time>2009-08-22T10:48:16Z</time>
      </trkpt>
      <trkpt lat="43.60454" lon="6.94776">
        <ele>118.379395</ele>
        <time>2009-08-22T10:48:40Z</time>
      </trkpt>
      <trkpt lat="43.60487" lon="6.94774">
        <ele>124.147339</ele>
        <time>2009-08-22T10:49:14Z</time>
      </trkpt>
      <trkpt lat="43.60476" lon="6.94797">
        <ele>124.628052</ele>
        <time>2009-08-22T10:49:39Z</time>
      </trkpt>
      <trkpt lat="43.60469" lon="6.94802">
        <ele>126.069946</ele>
        <time>2009-08-22T10:49:45Z</time>
      </trkpt>
      <trkpt lat="43.60461" lon="6.94808">
        <ele>128.473389</ele>
        <time>2009-08-22T10:50:10Z</time>
      </trkpt>
    </trkseg>
  </trk>
</gpx>